sensor_id;sensor_type;location;lat;lon;timestamp;temperature;humidity
54930;DHT22;40833;53.238;6.576;2023-12-22T00:01:19;5.40;99.90
54930;DHT22;40833;53.238;6.576;2023-12-22T00:03:45;5.50;99.90
54930;DHT22;40833;53.238;6.576;2023-12-22T00:06:12;5.60;99.90
54930;DHT22;40833;53.238;6.576;2023-12-22T00:08:38;5.70;99.90
54930;DHT22;40833;53.238;6.576;2023-12-22T00:11:04;5.70;99.90
54930;DHT22;40833;53.238;6.576;2023-12-22T00:13:30;5.70;99.90
54930;DHT22;40833;53.238;6.576;2023-12-22T00:15:55;5.60;99.90
54930;DHT22;40833;53.238;6.576;2023-12-22T00:18:21;5.30;99.90
54930;DHT22;40833;53.238;6.576;2023-12-22T00:20:47;5.00;99.90
54930;DHT22;40833;53.238;6.576;2023-12-22T00:23:12;5.80;99.90
54930;DHT22;40833;53.238;6.576;2023-12-22T00:25:38;5.60;99.90
54930;DHT22;40833;53.238;6.576;2023-12-22T00:28:04;4.90;99.90
54930;DHT22;40833;53.238;6.576;2023-12-22T00:30:29;4.60;99.90
54930;DHT22;40833;53.238;6.576;2023-12-22T00:32:55;6.40;99.90
54930;DHT22;40833;53.238;6.576;2023-12-22T00:35:20;5.40;99.90
54930;DHT22;40833;53.238;6.576;2023-12-22T00:37:46;5.30;99.90
54930;DHT22;40833;53.238;6.576;2023-12-22T00:40:12;4.90;99.90
54930;DHT22;40833;53.238;6.576;2023-12-22T00:42:38;5.00;99.90
54930;DHT22;40833;53.238;6.576;2023-12-22T00:45:04;4.80;99.90
54930;DHT22;40833;53.238;6.576;2023-12-22T00:47:29;4.70;99.90
54930;DHT22;40833;53.238;6.576;2023-12-22T00:49:55;6.80;99.90
54930;DHT22;40833;53.238;6.576;2023-12-22T00:52:21;4.60;99.90
54930;DHT22;40833;53.238;6.576;2023-12-22T00:54:46;4.90;99.90
54930;DHT22;40833;53.238;6.576;2023-12-22T00:57:13;5.00;99.90
54930;DHT22;40833;53.238;6.576;2023-12-22T00:59:39;4.90;99.90
54930;DHT22;40833;53.238;6.576;2023-12-22T01:02:11;5.90;99.90
54930;DHT22;40833;53.238;6.576;2023-12-22T01:04:37;5.00;99.90
54930;DHT22;40833;53.238;6.576;2023-12-22T01:07:03;5.00;99.90
54930;DHT22;40833;53.238;6.576;2023-12-22T01:09:28;5.00;99.90
54930;DHT22;40833;53.238;6.576;2023-12-22T01:11:54;5.70;99.90
54930;DHT22;40833;53.238;6.576;2023-12-22T01:14:20;5.90;99.90
54930;DHT22;40833;53.238;6.576;2023-12-22T01:16:45;5.50;99.90
54930;DHT22;40833;53.238;6.576;2023-12-22T01:19:11;6.00;99.90
54930;DHT22;40833;53.238;6.576;2023-12-22T01:21:37;4.90;99.90
54930;DHT22;40833;53.238;6.576;2023-12-22T01:24:02;6.00;99.90
54930;DHT22;40833;53.238;6.576;2023-12-22T01:26:28;5.00;99.90
54930;DHT22;40833;53.238;6.576;2023-12-22T01:28:54;6.30;99.90
54930;DHT22;40833;53.238;6.576;2023-12-22T01:31:19;6.10;99.90
54930;DHT22;40833;53.238;6.576;2023-12-22T01:33:45;5.80;99.90
54930;DHT22;40833;53.238;6.576;2023-12-22T01:36:11;5.50;99.90
54930;DHT22;40833;53.238;6.576;2023-12-22T01:38:37;5.20;99.90
54930;DHT22;40833;53.238;6.576;2023-12-22T01:41:02;5.30;99.90
54930;DHT22;40833;53.238;6.576;2023-12-22T01:43:28;5.30;99.90
54930;DHT22;40833;53.238;6.576;2023-12-22T01:45:58;5.30;99.90
54930;DHT22;40833;53.238;6.576;2023-12-22T01:48:25;5.60;99.90
54930;DHT22;40833;53.238;6.576;2023-12-22T01:50:52;6.40;99.90
54930;DHT22;40833;53.238;6.576;2023-12-22T01:53:19;5.70;99.90
54930;DHT22;40833;53.238;6.576;2023-12-22T01:55:47;5.30;99.90
54930;DHT22;40833;53.238;6.576;2023-12-22T01:58:13;5.20;99.90
54930;DHT22;40833;53.238;6.576;2023-12-22T02:00:39;5.10;99.90
54930;DHT22;40833;53.238;6.576;2023-12-22T02:03:06;5.00;99.90
54930;DHT22;40833;53.238;6.576;2023-12-22T02:05:32;7.50;99.90
54930;DHT22;40833;53.238;6.576;2023-12-22T02:07:58;4.90;99.90
54930;DHT22;40833;53.238;6.576;2023-12-22T02:10:24;4.90;99.90
54930;DHT22;40833;53.238;6.576;2023-12-22T02:12:51;5.00;99.90
54930;DHT22;40833;53.238;6.576;2023-12-22T02:15:18;5.00;99.90
54930;DHT22;40833;53.238;6.576;2023-12-22T02:18:04;5.10;99.90
54930;DHT22;40833;53.238;6.576;2023-12-22T02:20:32;5.20;99.90
54930;DHT22;40833;53.238;6.576;2023-12-22T02:22:58;5.10;99.90
54930;DHT22;40833;53.238;6.576;2023-12-22T02:25:24;6.40;99.90
54930;DHT22;40833;53.238;6.576;2023-12-22T02:27:56;4.90;99.90
54930;DHT22;40833;53.238;6.576;2023-12-22T02:33:15;4.70;99.90
54930;DHT22;40833;53.238;6.576;2023-12-22T02:35:42;6.00;99.90
54930;DHT22;40833;53.238;6.576;2023-12-22T02:38:11;4.70;99.90
54930;DHT22;40833;53.238;6.576;2023-12-22T02:40:37;5.70;99.90
54930;DHT22;40833;53.238;6.576;2023-12-22T02:43:05;5.30;99.90
54930;DHT22;40833;53.238;6.576;2023-12-22T02:45:31;4.70;99.90
54930;DHT22;40833;53.238;6.576;2023-12-22T02:47:58;4.70;99.90
54930;DHT22;40833;53.238;6.576;2023-12-22T02:50:23;5.20;99.90
54930;DHT22;40833;53.238;6.576;2023-12-22T02:52:49;4.90;99.90
54930;DHT22;40833;53.238;6.576;2023-12-22T02:55:15;5.30;99.90
54930;DHT22;40833;53.238;6.576;2023-12-22T02:57:41;5.10;99.90
54930;DHT22;40833;53.238;6.576;2023-12-22T03:00:07;5.30;99.90
54930;DHT22;40833;53.238;6.576;2023-12-22T03:02:33;5.30;99.90
54930;DHT22;40833;53.238;6.576;2023-12-22T03:04:59;5.30;99.90
54930;DHT22;40833;53.238;6.576;2023-12-22T03:07:24;5.10;99.90
54930;DHT22;40833;53.238;6.576;2023-12-22T03:09:50;5.70;99.90
54930;DHT22;40833;53.238;6.576;2023-12-22T03:12:16;5.90;99.90
54930;DHT22;40833;53.238;6.576;2023-12-22T03:14:41;4.70;99.90
54930;DHT22;40833;53.238;6.576;2023-12-22T03:17:07;4.60;99.90
54930;DHT22;40833;53.238;6.576;2023-12-22T03:19:33;5.00;99.90
54930;DHT22;40833;53.238;6.576;2023-12-22T03:22:00;5.90;99.90
54930;DHT22;40833;53.238;6.576;2023-12-22T03:24:26;4.60;99.90
54930;DHT22;40833;53.238;6.576;2023-12-22T03:26:52;5.40;99.90
54930;DHT22;40833;53.238;6.576;2023-12-22T03:29:18;4.70;99.90
54930;DHT22;40833;53.238;6.576;2023-12-22T03:31:44;5.20;99.90
54930;DHT22;40833;53.238;6.576;2023-12-22T03:34:11;4.40;99.90
54930;DHT22;40833;53.238;6.576;2023-12-22T03:36:36;5.30;99.90
54930;DHT22;40833;53.238;6.576;2023-12-22T03:39:03;6.10;99.90
54930;DHT22;40833;53.238;6.576;2023-12-22T03:41:29;4.80;99.90
54930;DHT22;40833;53.238;6.576;2023-12-22T03:43:55;6.40;99.90
54930;DHT22;40833;53.238;6.576;2023-12-22T03:46:21;7.00;99.90
54930;DHT22;40833;53.238;6.576;2023-12-22T03:48:47;5.20;99.90
54930;DHT22;40833;53.238;6.576;2023-12-22T03:51:12;6.00;99.90
54930;DHT22;40833;53.238;6.576;2023-12-22T03:53:40;6.90;99.90
54930;DHT22;40833;53.238;6.576;2023-12-22T03:56:08;6.20;99.90
54930;DHT22;40833;53.238;6.576;2023-12-22T03:58:37;6.60;99.90
54930;DHT22;40833;53.238;6.576;2023-12-22T04:01:03;5.30;99.90
54930;DHT22;40833;53.238;6.576;2023-12-22T04:03:29;8.20;99.90
54930;DHT22;40833;53.238;6.576;2023-12-22T04:05:55;5.90;99.90
54930;DHT22;40833;53.238;6.576;2023-12-22T04:08:20;5.70;99.90
54930;DHT22;40833;53.238;6.576;2023-12-22T04:10:47;5.50;99.90
54930;DHT22;40833;53.238;6.576;2023-12-22T04:13:12;5.90;99.90
54930;DHT22;40833;53.238;6.576;2023-12-22T04:15:38;7.80;99.90
54930;DHT22;40833;53.238;6.576;2023-12-22T04:18:04;6.60;99.90
54930;DHT22;40833;53.238;6.576;2023-12-22T04:20:30;5.70;99.90
54930;DHT22;40833;53.238;6.576;2023-12-22T04:22:55;5.30;99.90
54930;DHT22;40833;53.238;6.576;2023-12-22T04:25:21;5.20;99.90
54930;DHT22;40833;53.238;6.576;2023-12-22T04:27:48;5.70;99.90
54930;DHT22;40833;53.238;6.576;2023-12-22T04:30:15;6.60;99.90
54930;DHT22;40833;53.238;6.576;2023-12-22T04:32:40;5.50;99.90
54930;DHT22;40833;53.238;6.576;2023-12-22T04:35:07;6.20;99.90
54930;DHT22;40833;53.238;6.576;2023-12-22T04:37:33;5.70;99.90
54930;DHT22;40833;53.238;6.576;2023-12-22T04:39:58;5.70;99.90
54930;DHT22;40833;53.238;6.576;2023-12-22T04:42:24;6.10;99.90
54930;DHT22;40833;53.238;6.576;2023-12-22T04:44:51;7.50;99.90
54930;DHT22;40833;53.238;6.576;2023-12-22T04:47:17;5.90;99.90
54930;DHT22;40833;53.238;6.576;2023-12-22T04:49:44;6.50;99.90
54930;DHT22;40833;53.238;6.576;2023-12-22T04:52:11;6.00;99.90
54930;DHT22;40833;53.238;6.576;2023-12-22T04:54:37;6.10;99.90
54930;DHT22;40833;53.238;6.576;2023-12-22T04:57:03;6.00;99.90
54930;DHT22;40833;53.238;6.576;2023-12-22T04:59:29;6.00;99.90
54930;DHT22;40833;53.238;6.576;2023-12-22T05:01:55;6.00;99.90
54930;DHT22;40833;53.238;6.576;2023-12-22T05:04:20;6.00;99.90
54930;DHT22;40833;53.238;6.576;2023-12-22T05:06:47;5.90;99.90
54930;DHT22;40833;53.238;6.576;2023-12-22T05:09:12;6.00;99.90
54930;DHT22;40833;53.238;6.576;2023-12-22T05:11:38;6.00;99.90
54930;DHT22;40833;53.238;6.576;2023-12-22T05:14:04;6.20;99.90
54930;DHT22;40833;53.238;6.576;2023-12-22T05:16:29;6.30;99.90
54930;DHT22;40833;53.238;6.576;2023-12-22T05:18:59;7.90;99.90
54930;DHT22;40833;53.238;6.576;2023-12-22T05:21:25;6.10;99.90
54930;DHT22;40833;53.238;6.576;2023-12-22T05:23:51;6.10;99.90
54930;DHT22;40833;53.238;6.576;2023-12-22T05:26:17;6.70;99.90
54930;DHT22;40833;53.238;6.576;2023-12-22T05:28:43;6.80;99.90
54930;DHT22;40833;53.238;6.576;2023-12-22T05:31:09;6.20;99.90
54930;DHT22;40833;53.238;6.576;2023-12-22T05:33:35;6.30;99.90
54930;DHT22;40833;53.238;6.576;2023-12-22T05:36:01;6.20;99.90
54930;DHT22;40833;53.238;6.576;2023-12-22T05:38:26;6.20;99.90
54930;DHT22;40833;53.238;6.576;2023-12-22T05:40:52;6.10;99.90
54930;DHT22;40833;53.238;6.576;2023-12-22T05:43:17;6.20;99.90
54930;DHT22;40833;53.238;6.576;2023-12-22T05:45:43;6.20;99.90
54930;DHT22;40833;53.238;6.576;2023-12-22T05:48:09;6.20;99.90
54930;DHT22;40833;53.238;6.576;2023-12-22T05:50:34;6.20;99.90
54930;DHT22;40833;53.238;6.576;2023-12-22T05:53:00;6.30;99.90
54930;DHT22;40833;53.238;6.576;2023-12-22T05:55:26;6.70;99.90
54930;DHT22;40833;53.238;6.576;2023-12-22T05:57:51;6.20;99.90
54930;DHT22;40833;53.238;6.576;2023-12-22T06:00:17;6.20;99.90
54930;DHT22;40833;53.238;6.576;2023-12-22T06:02:43;6.20;99.90
54930;DHT22;40833;53.238;6.576;2023-12-22T06:05:08;6.20;99.90
54930;DHT22;40833;53.238;6.576;2023-12-22T06:07:34;6.20;99.90
54930;DHT22;40833;53.238;6.576;2023-12-22T06:10:00;6.30;99.90
54930;DHT22;40833;53.238;6.576;2023-12-22T06:12:25;6.40;99.90
54930;DHT22;40833;53.238;6.576;2023-12-22T06:14:51;6.40;99.90
54930;DHT22;40833;53.238;6.576;2023-12-22T06:17:17;6.40;99.90
54930;DHT22;40833;53.238;6.576;2023-12-22T06:19:42;7.40;99.90
54930;DHT22;40833;53.238;6.576;2023-12-22T06:22:08;6.70;99.90
54930;DHT22;40833;53.238;6.576;2023-12-22T06:24:35;6.30;99.90
54930;DHT22;40833;53.238;6.576;2023-12-22T06:27:01;6.30;99.90
54930;DHT22;40833;53.238;6.576;2023-12-22T06:29:27;6.30;99.90
54930;DHT22;40833;53.238;6.576;2023-12-22T06:31:52;6.30;99.90
54930;DHT22;40833;53.238;6.576;2023-12-22T06:34:18;6.50;99.90
54930;DHT22;40833;53.238;6.576;2023-12-22T06:36:44;6.30;99.90
54930;DHT22;40833;53.238;6.576;2023-12-22T06:39:09;6.70;99.90
54930;DHT22;40833;53.238;6.576;2023-12-22T06:41:35;6.50;99.90
54930;DHT22;40833;53.238;6.576;2023-12-22T06:44:01;6.70;99.90
54930;DHT22;40833;53.238;6.576;2023-12-22T06:46:27;7.00;99.90
54930;DHT22;40833;53.238;6.576;2023-12-22T06:48:55;5.80;99.90
54930;DHT22;40833;53.238;6.576;2023-12-22T06:51:22;5.40;99.90
54930;DHT22;40833;53.238;6.576;2023-12-22T06:53:48;7.00;99.90
54930;DHT22;40833;53.238;6.576;2023-12-22T06:56:18;5.20;99.90
54930;DHT22;40833;53.238;6.576;2023-12-22T06:58:44;5.10;99.90
54930;DHT22;40833;53.238;6.576;2023-12-22T07:01:17;5.10;99.90
54930;DHT22;40833;53.238;6.576;2023-12-22T07:03:44;6.40;99.90
54930;DHT22;40833;53.238;6.576;2023-12-22T07:06:09;5.10;99.90
54930;DHT22;40833;53.238;6.576;2023-12-22T07:08:35;5.10;99.90
54930;DHT22;40833;53.238;6.576;2023-12-22T07:11:00;5.90;99.90
54930;DHT22;40833;53.238;6.576;2023-12-22T07:13:26;5.40;99.90
54930;DHT22;40833;53.238;6.576;2023-12-22T07:15:52;5.50;99.90
54930;DHT22;40833;53.238;6.576;2023-12-22T07:18:17;5.60;99.90
54930;DHT22;40833;53.238;6.576;2023-12-22T07:20:43;5.70;99.90
54930;DHT22;40833;53.238;6.576;2023-12-22T07:23:10;6.30;99.90
54930;DHT22;40833;53.238;6.576;2023-12-22T07:25:37;7.10;99.90
54930;DHT22;40833;53.238;6.576;2023-12-22T07:28:04;6.00;99.90
54930;DHT22;40833;53.238;6.576;2023-12-22T07:30:30;5.60;99.90
54930;DHT22;40833;53.238;6.576;2023-12-22T07:32:55;6.10;99.90
54930;DHT22;40833;53.238;6.576;2023-12-22T07:35:21;5.50;99.90
54930;DHT22;40833;53.238;6.576;2023-12-22T07:37:47;5.60;99.90
54930;DHT22;40833;53.238;6.576;2023-12-22T07:40:12;5.20;99.90
54930;DHT22;40833;53.238;6.576;2023-12-22T07:42:38;5.10;99.90
54930;DHT22;40833;53.238;6.576;2023-12-22T07:45:05;6.80;99.90
54930;DHT22;40833;53.238;6.576;2023-12-22T07:47:32;5.00;99.90
54930;DHT22;40833;53.238;6.576;2023-12-22T07:49:58;5.40;99.90
54930;DHT22;40833;53.238;6.576;2023-12-22T07:52:24;5.00;99.90
54930;DHT22;40833;53.238;6.576;2023-12-22T07:54:49;5.30;99.90
54930;DHT22;40833;53.238;6.576;2023-12-22T07:57:16;5.00;99.90
54930;DHT22;40833;53.238;6.576;2023-12-22T07:59:42;5.50;99.90
54930;DHT22;40833;53.238;6.576;2023-12-22T08:02:08;5.70;99.90
54930;DHT22;40833;53.238;6.576;2023-12-22T08:04:33;5.00;99.90
54930;DHT22;40833;53.238;6.576;2023-12-22T08:06:59;5.00;99.90
54930;DHT22;40833;53.238;6.576;2023-12-22T08:09:25;5.00;99.90
54930;DHT22;40833;53.238;6.576;2023-12-22T08:11:50;6.90;99.90
54930;DHT22;40833;53.238;6.576;2023-12-22T08:14:19;6.70;99.90
54930;DHT22;40833;53.238;6.576;2023-12-22T08:16:44;5.20;99.90
54930;DHT22;40833;53.238;6.576;2023-12-22T08:19:10;5.20;99.90
54930;DHT22;40833;53.238;6.576;2023-12-22T08:21:36;5.80;99.90
54930;DHT22;40833;53.238;6.576;2023-12-22T08:24:01;5.90;99.90
54930;DHT22;40833;53.238;6.576;2023-12-22T08:26:27;5.80;99.90
54930;DHT22;40833;53.238;6.576;2023-12-22T08:28:53;5.90;99.90
54930;DHT22;40833;53.238;6.576;2023-12-22T08:31:19;5.90;99.90
54930;DHT22;40833;53.238;6.576;2023-12-22T08:33:44;8.30;99.90
54930;DHT22;40833;53.238;6.576;2023-12-22T08:36:11;6.00;99.90
54930;DHT22;40833;53.238;6.576;2023-12-22T08:38:37;5.90;99.90
54930;DHT22;40833;53.238;6.576;2023-12-22T08:41:07;5.90;99.90
54930;DHT22;40833;53.238;6.576;2023-12-22T08:43:33;5.80;99.90
54930;DHT22;40833;53.238;6.576;2023-12-22T08:45:58;5.90;99.90
54930;DHT22;40833;53.238;6.576;2023-12-22T08:48:24;5.90;99.90
54930;DHT22;40833;53.238;6.576;2023-12-22T08:50:50;5.90;99.90
54930;DHT22;40833;53.238;6.576;2023-12-22T08:53:15;6.00;99.90
54930;DHT22;40833;53.238;6.576;2023-12-22T08:55:41;6.00;99.90
54930;DHT22;40833;53.238;6.576;2023-12-22T08:58:06;6.00;99.90
54930;DHT22;40833;53.238;6.576;2023-12-22T09:00:32;6.30;99.90
54930;DHT22;40833;53.238;6.576;2023-12-22T09:02:58;5.90;99.90
54930;DHT22;40833;53.238;6.576;2023-12-22T09:05:23;5.90;99.90
54930;DHT22;40833;53.238;6.576;2023-12-22T09:07:49;5.90;99.90
54930;DHT22;40833;53.238;6.576;2023-12-22T09:10:15;5.90;99.90
54930;DHT22;40833;53.238;6.576;2023-12-22T09:12:40;5.90;99.90
54930;DHT22;40833;53.238;6.576;2023-12-22T09:15:07;5.90;99.90
54930;DHT22;40833;53.238;6.576;2023-12-22T09:17:33;5.90;99.90
54930;DHT22;40833;53.238;6.576;2023-12-22T09:20:00;6.00;99.90
54930;DHT22;40833;53.238;6.576;2023-12-22T09:22:25;7.00;99.90
54930;DHT22;40833;53.238;6.576;2023-12-22T09:24:51;6.30;99.90
54930;DHT22;40833;53.238;6.576;2023-12-22T09:27:17;6.00;99.90
54930;DHT22;40833;53.238;6.576;2023-12-22T09:29:42;6.10;99.90
54930;DHT22;40833;53.238;6.576;2023-12-22T09:32:08;6.10;99.90
54930;DHT22;40833;53.238;6.576;2023-12-22T09:34:34;6.10;99.90
54930;DHT22;40833;53.238;6.576;2023-12-22T09:36:59;7.70;99.90
54930;DHT22;40833;53.238;6.576;2023-12-22T09:39:25;6.10;99.90
54930;DHT22;40833;53.238;6.576;2023-12-22T09:41:52;6.40;99.90
54930;DHT22;40833;53.238;6.576;2023-12-22T09:44:20;6.20;99.90
54930;DHT22;40833;53.238;6.576;2023-12-22T09:46:49;8.90;99.90
54930;DHT22;40833;53.238;6.576;2023-12-22T09:49:18;6.30;99.90
54930;DHT22;40833;53.238;6.576;2023-12-22T09:51:46;6.90;99.90
54930;DHT22;40833;53.238;6.576;2023-12-22T09:54:13;6.30;99.90
54930;DHT22;40833;53.238;6.576;2023-12-22T09:56:39;6.30;99.90
54930;DHT22;40833;53.238;6.576;2023-12-22T09:59:12;6.40;99.90
54930;DHT22;40833;53.238;6.576;2023-12-22T10:01:44;6.50;99.90
54930;DHT22;40833;53.238;6.576;2023-12-22T10:04:14;6.50;99.90
54930;DHT22;40833;53.238;6.576;2023-12-22T10:06:41;6.60;99.90
54930;DHT22;40833;53.238;6.576;2023-12-22T10:09:07;6.60;99.90
54930;DHT22;40833;53.238;6.576;2023-12-22T10:11:35;6.60;99.90
54930;DHT22;40833;53.238;6.576;2023-12-22T10:14:04;6.70;99.90
54930;DHT22;40833;53.238;6.576;2023-12-22T10:16:30;7.10;99.90
54930;DHT22;40833;53.238;6.576;2023-12-22T10:18:56;6.70;99.90
54930;DHT22;40833;53.238;6.576;2023-12-22T10:21:22;9.40;99.90
54930;DHT22;40833;53.238;6.576;2023-12-22T10:23:48;6.70;99.90
54930;DHT22;40833;53.238;6.576;2023-12-22T10:26:14;6.70;99.90
54930;DHT22;40833;53.238;6.576;2023-12-22T10:28:41;6.90;99.90
54930;DHT22;40833;53.238;6.576;2023-12-22T10:31:09;6.80;99.90
54930;DHT22;40833;53.238;6.576;2023-12-22T10:33:34;6.90;99.90
54930;DHT22;40833;53.238;6.576;2023-12-22T10:36:00;6.90;99.90
54930;DHT22;40833;53.238;6.576;2023-12-22T10:38:32;8.50;99.90
54930;DHT22;40833;53.238;6.576;2023-12-22T10:40:58;7.00;99.90
54930;DHT22;40833;53.238;6.576;2023-12-22T10:43:23;6.90;99.90
54930;DHT22;40833;53.238;6.576;2023-12-22T10:45:52;7.00;99.90
54930;DHT22;40833;53.238;6.576;2023-12-22T10:48:18;7.00;99.90
54930;DHT22;40833;53.238;6.576;2023-12-22T10:50:43;7.00;99.90
54930;DHT22;40833;53.238;6.576;2023-12-22T10:53:11;7.00;99.90
54930;DHT22;40833;53.238;6.576;2023-12-22T10:55:37;7.00;99.90
54930;DHT22;40833;53.238;6.576;2023-12-22T10:58:03;7.00;99.90
54930;DHT22;40833;53.238;6.576;2023-12-22T11:00:29;7.00;99.90
54930;DHT22;40833;53.238;6.576;2023-12-22T11:03:01;7.30;99.90
54930;DHT22;40833;53.238;6.576;2023-12-22T11:05:28;9.70;99.90
54930;DHT22;40833;53.238;6.576;2023-12-22T11:07:55;7.10;99.90
54930;DHT22;40833;53.238;6.576;2023-12-22T11:10:23;7.10;99.90
54930;DHT22;40833;53.238;6.576;2023-12-22T11:12:50;7.10;99.90
54930;DHT22;40833;53.238;6.576;2023-12-22T11:15:18;7.10;99.90
54930;DHT22;40833;53.238;6.576;2023-12-22T11:17:44;7.20;99.90
54930;DHT22;40833;53.238;6.576;2023-12-22T11:20:14;7.80;99.90
54930;DHT22;40833;53.238;6.576;2023-12-22T11:22:42;7.20;99.90
54930;DHT22;40833;53.238;6.576;2023-12-22T11:25:08;7.50;99.90
54930;DHT22;40833;53.238;6.576;2023-12-22T11:27:36;8.10;99.90
54930;DHT22;40833;53.238;6.576;2023-12-22T11:30:04;7.60;99.90
54930;DHT22;40833;53.238;6.576;2023-12-22T11:32:34;7.30;99.90
54930;DHT22;40833;53.238;6.576;2023-12-22T11:35:00;7.30;99.90
54930;DHT22;40833;53.238;6.576;2023-12-22T11:37:25;7.70;99.90
54930;DHT22;40833;53.238;6.576;2023-12-22T11:39:51;7.30;99.90
54930;DHT22;40833;53.238;6.576;2023-12-22T11:42:31;7.30;99.90
54930;DHT22;40833;53.238;6.576;2023-12-22T11:44:59;7.80;99.90
54930;DHT22;40833;53.238;6.576;2023-12-22T11:47:24;7.30;99.90
54930;DHT22;40833;53.238;6.576;2023-12-22T11:49:51;7.40;99.90
54930;DHT22;40833;53.238;6.576;2023-12-22T11:52:18;7.80;99.90
54930;DHT22;40833;53.238;6.576;2023-12-22T11:54:52;7.40;99.90
54930;DHT22;40833;53.238;6.576;2023-12-22T12:00:02;7.40;99.90
54930;DHT22;40833;53.238;6.576;2023-12-22T12:02:33;7.50;99.90
54930;DHT22;40833;53.238;6.576;2023-12-22T12:04:59;8.60;99.90
54930;DHT22;40833;53.238;6.576;2023-12-22T12:07:46;7.50;99.90
54930;DHT22;40833;53.238;6.576;2023-12-22T12:13:11;7.60;99.90
54930;DHT22;40833;53.238;6.576;2023-12-22T12:15:38;8.30;99.90
54930;DHT22;40833;53.238;6.576;2023-12-22T12:18:05;7.40;99.90
54930;DHT22;40833;53.238;6.576;2023-12-22T12:20:33;7.50;99.90
54930;DHT22;40833;53.238;6.576;2023-12-22T12:23:01;7.50;99.90
54930;DHT22;40833;53.238;6.576;2023-12-22T12:25:32;7.50;99.90
54930;DHT22;40833;53.238;6.576;2023-12-22T12:28:02;7.50;99.90
54930;DHT22;40833;53.238;6.576;2023-12-22T12:30:28;7.50;99.90
54930;DHT22;40833;53.238;6.576;2023-12-22T12:32:54;7.60;99.90
54930;DHT22;40833;53.238;6.576;2023-12-22T12:35:28;7.40;99.90
54930;DHT22;40833;53.238;6.576;2023-12-22T12:37:55;7.40;99.90
54930;DHT22;40833;53.238;6.576;2023-12-22T12:40:23;7.50;99.90
54930;DHT22;40833;53.238;6.576;2023-12-22T12:42:50;7.40;99.90
54930;DHT22;40833;53.238;6.576;2023-12-22T12:45:22;7.40;99.90
54930;DHT22;40833;53.238;6.576;2023-12-22T12:47:58;7.60;99.90
54930;DHT22;40833;53.238;6.576;2023-12-22T12:50:25;7.40;99.90
54930;DHT22;40833;53.238;6.576;2023-12-22T12:52:54;7.40;99.90
54930;DHT22;40833;53.238;6.576;2023-12-22T12:55:21;7.40;99.90
54930;DHT22;40833;53.238;6.576;2023-12-22T12:57:49;7.60;99.90
54930;DHT22;40833;53.238;6.576;2023-12-22T13:00:37;7.40;99.90
54930;DHT22;40833;53.238;6.576;2023-12-22T13:03:04;7.30;99.90
54930;DHT22;40833;53.238;6.576;2023-12-22T13:05:33;7.40;99.90
54930;DHT22;40833;53.238;6.576;2023-12-22T13:08:12;7.30;99.90
54930;DHT22;40833;53.238;6.576;2023-12-22T13:10:39;7.60;99.90
54930;DHT22;40833;53.238;6.576;2023-12-22T13:13:05;8.30;99.90
54930;DHT22;40833;53.238;6.576;2023-12-22T13:15:30;7.30;99.90
54930;DHT22;40833;53.238;6.576;2023-12-22T13:17:56;7.60;99.90
54930;DHT22;40833;53.238;6.576;2023-12-22T13:20:23;7.50;99.90
54930;DHT22;40833;53.238;6.576;2023-12-22T13:22:49;7.20;99.90
54930;DHT22;40833;53.238;6.576;2023-12-22T13:25:15;7.20;99.90
54930;DHT22;40833;53.238;6.576;2023-12-22T13:27:47;7.60;99.90
54930;DHT22;40833;53.238;6.576;2023-12-22T13:32:58;7.10;99.90
54930;DHT22;40833;53.238;6.576;2023-12-22T13:35:24;7.00;99.90
54930;DHT22;40833;53.238;6.576;2023-12-22T13:37:51;7.00;99.90
54930;DHT22;40833;53.238;6.576;2023-12-22T13:40:17;7.00;99.90
54930;DHT22;40833;53.238;6.576;2023-12-22T13:42:43;7.00;99.90
54930;DHT22;40833;53.238;6.576;2023-12-22T13:45:11;6.90;99.90
54930;DHT22;40833;53.238;6.576;2023-12-22T13:47:44;6.90;99.90
54930;DHT22;40833;53.238;6.576;2023-12-22T13:50:15;6.80;99.90
54930;DHT22;40833;53.238;6.576;2023-12-22T13:52:41;6.80;99.90
54930;DHT22;40833;53.238;6.576;2023-12-22T13:55:13;6.70;99.90
54930;DHT22;40833;53.238;6.576;2023-12-22T13:57:40;6.70;99.90
54930;DHT22;40833;53.238;6.576;2023-12-22T14:02:49;7.10;99.90
54930;DHT22;40833;53.238;6.576;2023-12-22T14:05:16;6.60;99.90
54930;DHT22;40833;53.238;6.576;2023-12-22T14:07:43;9.40;99.90
54930;DHT22;40833;53.238;6.576;2023-12-22T14:10:10;7.20;99.90
54930;DHT22;40833;53.238;6.576;2023-12-22T14:12:36;6.60;99.90
54930;DHT22;40833;53.238;6.576;2023-12-22T14:15:09;7.40;99.90
54930;DHT22;40833;53.238;6.576;2023-12-22T14:17:36;6.70;99.90
54930;DHT22;40833;53.238;6.576;2023-12-22T14:20:02;7.40;99.90
54930;DHT22;40833;53.238;6.576;2023-12-22T14:22:30;6.70;99.90
54930;DHT22;40833;53.238;6.576;2023-12-22T14:24:56;6.80;99.90
54930;DHT22;40833;53.238;6.576;2023-12-22T14:27:25;8.90;99.90
54930;DHT22;40833;53.238;6.576;2023-12-22T14:29:50;6.60;99.90
54930;DHT22;40833;53.238;6.576;2023-12-22T14:32:16;7.20;99.90
54930;DHT22;40833;53.238;6.576;2023-12-22T14:34:45;6.50;99.90
54930;DHT22;40833;53.238;6.576;2023-12-22T14:37:10;6.50;99.90
54930;DHT22;40833;53.238;6.576;2023-12-22T14:39:36;6.80;99.90
54930;DHT22;40833;53.238;6.576;2023-12-22T14:42:02;7.40;99.90
54930;DHT22;40833;53.238;6.576;2023-12-22T14:44:30;6.40;99.90
54930;DHT22;40833;53.238;6.576;2023-12-22T14:46:56;6.40;99.90
54930;DHT22;40833;53.238;6.576;2023-12-22T14:49:22;6.30;99.90
54930;DHT22;40833;53.238;6.576;2023-12-22T14:51:48;6.80;99.90
54930;DHT22;40833;53.238;6.576;2023-12-22T14:54:21;6.40;99.90
54930;DHT22;40833;53.238;6.576;2023-12-22T14:56:47;6.60;99.90
54930;DHT22;40833;53.238;6.576;2023-12-22T14:59:14;6.30;99.90
54930;DHT22;40833;53.238;6.576;2023-12-22T15:01:41;6.30;99.90
54930;DHT22;40833;53.238;6.576;2023-12-22T15:04:07;6.30;99.90
54930;DHT22;40833;53.238;6.576;2023-12-22T15:06:37;8.00;99.90
54930;DHT22;40833;53.238;6.576;2023-12-22T15:09:02;6.90;99.90
54930;DHT22;40833;53.238;6.576;2023-12-22T15:11:29;6.30;99.90
54930;DHT22;40833;53.238;6.576;2023-12-22T15:13:54;6.40;99.90
54930;DHT22;40833;53.238;6.576;2023-12-22T15:16:20;6.50;99.90
54930;DHT22;40833;53.238;6.576;2023-12-22T15:18:46;7.60;99.90
54930;DHT22;40833;53.238;6.576;2023-12-22T15:21:21;6.60;99.90
54930;DHT22;40833;53.238;6.576;2023-12-22T15:23:47;6.40;99.90
54930;DHT22;40833;53.238;6.576;2023-12-22T15:26:23;6.70;99.90
54930;DHT22;40833;53.238;6.576;2023-12-22T15:28:51;6.70;99.90
54930;DHT22;40833;53.238;6.576;2023-12-22T15:31:17;6.50;99.90
54930;DHT22;40833;53.238;6.576;2023-12-22T15:33:42;6.50;99.90
54930;DHT22;40833;53.238;6.576;2023-12-22T15:36:08;6.60;99.90
54930;DHT22;40833;53.238;6.576;2023-12-22T15:38:34;6.50;99.90
54930;DHT22;40833;53.238;6.576;2023-12-22T15:41:01;6.40;99.90
54930;DHT22;40833;53.238;6.576;2023-12-22T15:43:27;6.40;99.90
54930;DHT22;40833;53.238;6.576;2023-12-22T15:45:53;6.50;99.90
54930;DHT22;40833;53.238;6.576;2023-12-22T15:48:19;6.50;99.90
54930;DHT22;40833;53.238;6.576;2023-12-22T15:50:45;6.90;99.90
54930;DHT22;40833;53.238;6.576;2023-12-22T15:53:12;6.70;99.90
54930;DHT22;40833;53.238;6.576;2023-12-22T15:55:38;7.60;99.90